Wysox, Pennsylvania
Current Conditions -  °F | °C
As of 11:53 PM on Sunday 21 Dec 2014 (Local Time) from KBGM Reporting Station
Overcast Overcast  
Wind Chill: 26°   Ceiling: 1200
Heat Index: 26°   Visibility: 10mi
Dew Point: 21°   Wind: 3mph
Humidity: 81%   Direction: 170°S
Pressure: 30.26"   Gusts: NA
Location:  41.78°N, 76.4°W
Report Text: KBGM 220453Z AUTO 17003KT 10SM OVC012 M03/M06 A3026 RMK AO2 SLP268 T10331061 410221044
Loading
Personal Weather Stations






























Interactive Weather Map New forecast layout! Learn more

10-Day Weather Forecast

Advertisements
Track Severe Weather on mobile